createdAt,value
2023-02-13T00:00:43.148Z,23.27
2023-02-13T00:03:39.894Z,23.17
2023-02-13T00:06:43.106Z,22.87
2023-02-13T00:09:45.220Z,19.83
2023-02-13T00:16:08.758Z,15.30
2023-02-13T00:19:23.163Z,17.00
2023-02-13T00:22:36.022Z,16.53
2023-02-13T00:25:58.728Z,15.30
2023-02-13T00:29:07.686Z,17.03
2023-02-13T00:32:33.388Z,14.83
2023-02-13T00:35:31.644Z,15.60
2023-02-13T00:38:52.558Z,17.90
2023-02-13T00:42:20.490Z,11.77
2023-02-13T00:45:18.604Z,13.00
2023-02-13T00:48:13.032Z,10.13
2023-02-13T00:51:08.736Z,9.40
2023-02-13T00:57:37.757Z,9.77
2023-02-13T01:00:35.250Z,8.50
2023-02-13T01:03:32.592Z,7.00
2023-02-13T01:14:03.600Z,4.17
2023-02-13T01:17:21.611Z,5.60
2023-02-13T01:20:27.590Z,5.00
2023-02-13T01:23:38.055Z,4.30
2023-02-13T01:26:38.549Z,4.68
2023-02-13T01:29:54.677Z,4.10
2023-02-13T01:32:59.893Z,4.20
2023-02-13T01:36:28.395Z,3.67
2023-02-13T01:39:31.196Z,4.35
2023-02-13T01:42:45.361Z,5.93
2023-02-13T01:45:55.016Z,4.40
2023-02-13T01:48:57.940Z,4.43
2023-02-13T01:55:17.982Z,3.87
2023-02-13T01:58:41.268Z,4.30
2023-02-13T02:01:49.792Z,4.20
2023-02-13T02:08:39.000Z,5.07
2023-02-13T02:11:46.397Z,5.40
2023-02-13T02:14:44.970Z,5.30
2023-02-13T02:18:21.130Z,5.17
2023-02-13T02:29:59.938Z,5.97
2023-02-13T02:33:25.829Z,5.77
2023-02-13T02:43:55.480Z,7.80
2023-02-13T02:47:52.472Z,7.07
2023-02-13T02:54:59.440Z,9.23
2023-02-13T02:58:36.765Z,7.17
2023-02-13T03:01:54.499Z,8.17
2023-02-13T03:05:08.330Z,7.67
2023-02-13T03:08:55.399Z,8.48
2023-02-13T03:12:17.418Z,8.53
2023-02-13T03:30:53.243Z,10.73
2023-02-13T03:34:07.830Z,10.87
2023-02-13T03:37:21.506Z,11.20
2023-02-13T03:40:27.034Z,11.33
2023-02-13T03:43:23.058Z,11.50
2023-02-13T03:46:21.839Z,12.07
2023-02-13T03:49:41.442Z,11.20
2023-02-13T03:52:43.593Z,11.53
2023-02-13T03:56:02.023Z,12.37
2023-02-13T03:59:22.561Z,11.00
2023-02-13T04:02:21.782Z,12.50
2023-02-13T04:05:27.603Z,11.37
2023-02-13T04:08:35.317Z,11.13
2023-02-13T04:11:40.861Z,11.10
2023-02-13T04:14:46.541Z,11.73
2023-02-13T04:18:10.657Z,11.13
2023-02-13T04:21:15.939Z,11.47
2023-02-13T04:24:24.285Z,12.30
2023-02-13T04:30:38.362Z,12.70
2023-02-13T04:34:09.799Z,14.33
2023-02-13T04:37:40.075Z,13.30
2023-02-13T04:40:57.987Z,13.70
2023-02-13T04:44:02.262Z,13.87
2023-02-13T04:47:07.223Z,14.43
2023-02-13T04:50:36.736Z,11.07
2023-02-13T04:53:52.075Z,12.80
2023-02-13T04:56:48.117Z,11.87
2023-02-13T04:59:49.668Z,12.10
2023-02-13T05:09:53.664Z,11.50
2023-02-13T05:12:46.593Z,10.90
2023-02-13T05:15:39.654Z,9.90
2023-02-13T05:18:59.947Z,9.80
2023-02-13T05:22:11.161Z,13.87
2023-02-13T05:25:11.514Z,11.20
2023-02-13T05:28:10.113Z,11.60
2023-02-13T05:31:05.022Z,11.53
2023-02-13T05:34:12.311Z,11.70
2023-02-13T05:37:13.398Z,11.90
2023-02-13T05:40:15.692Z,9.43
2023-02-13T05:43:10.822Z,10.50
2023-02-13T05:46:11.806Z,9.30
2023-02-13T05:49:17.672Z,10.90
2023-02-13T05:52:16.906Z,10.47
2023-02-13T05:55:10.123Z,7.90
2023-02-13T05:58:09.874Z,11.73
2023-02-13T06:01:04.570Z,9.00
2023-02-13T06:03:58.847Z,8.37
2023-02-13T06:06:49.869Z,8.20
2023-02-13T06:09:42.205Z,8.80
2023-02-13T06:12:42.324Z,8.90
2023-02-13T06:15:46.115Z,8.20
2023-02-13T06:21:47.141Z,9.33
2023-02-13T06:24:40.021Z,7.00
2023-02-13T06:27:40.114Z,8.60
2023-02-13T06:30:40.419Z,7.40
2023-02-13T06:33:52.195Z,9.07
2023-02-13T06:37:07.827Z,46.27
2023-02-13T06:40:07.585Z,19.53
2023-02-13T06:43:04.645Z,9.00
2023-02-13T06:46:01.606Z,7.70
2023-02-13T06:48:53.530Z,6.93
2023-02-13T06:51:51.153Z,7.53
2023-02-13T06:54:57.575Z,7.13
2023-02-13T06:57:54.587Z,6.50
2023-02-13T07:00:46.970Z,6.33
2023-02-13T07:04:04.438Z,11.30
2023-02-13T07:07:27.017Z,11.07
2023-02-13T07:10:35.355Z,7.50
2023-02-13T07:23:12.567Z,7.00
2023-02-13T07:26:28.467Z,7.93
2023-02-13T07:29:30.004Z,7.03
2023-02-13T07:32:41.642Z,7.87
2023-02-13T07:35:36.326Z,8.63
2023-02-13T07:38:50.178Z,6.90
2023-02-13T07:41:57.096Z,7.00
2023-02-13T07:44:52.806Z,7.90
2023-02-13T07:47:55.775Z,10.03
2023-02-13T07:50:51.474Z,9.40
2023-02-13T07:53:44.249Z,7.57
2023-02-13T07:56:51.797Z,8.10
2023-02-13T08:00:00.072Z,9.50
2023-02-13T08:02:55.302Z,8.10
2023-02-13T08:05:51.429Z,7.97
2023-02-13T08:08:44.888Z,7.30
2023-02-13T08:15:21.168Z,8.30
2023-02-13T08:18:18.833Z,7.03
2023-02-13T08:21:21.117Z,9.23
2023-02-13T08:24:20.919Z,8.20
2023-02-13T08:27:18.693Z,9.23
2023-02-13T08:33:30.315Z,8.50
2023-02-13T08:36:56.243Z,8.87
2023-02-13T08:40:38.349Z,7.50
2023-02-13T08:43:49.136Z,8.20
2023-02-13T08:46:57.683Z,8.80
2023-02-13T08:50:21.549Z,9.60
2023-02-13T08:53:39.338Z,9.07
2023-02-13T08:56:50.578Z,8.90
2023-02-13T08:59:54.668Z,8.60
2023-02-13T09:03:23.939Z,7.70
2023-02-13T09:06:23.114Z,8.70
2023-02-13T09:09:31.488Z,9.67
2023-02-13T09:12:25.742Z,7.57
2023-02-13T09:15:21.479Z,7.00
2023-02-13T09:18:42.885Z,7.33
2023-02-13T09:21:33.851Z,8.13
2023-02-13T09:24:27.598Z,7.87
2023-02-13T09:27:21.701Z,9.55
2023-02-13T09:30:23.740Z,10.20
2023-02-13T09:33:20.697Z,8.97
2023-02-13T09:36:25.666Z,10.30
2023-02-13T09:39:22.680Z,10.00
2023-02-13T09:42:32.006Z,10.87
2023-02-13T09:45:25.317Z,11.23
2023-02-13T09:48:31.548Z,10.50
2023-02-13T09:51:34.535Z,10.30
2023-02-13T09:54:36.519Z,11.63
2023-02-13T09:57:41.932Z,12.73
2023-02-13T10:00:42.611Z,12.67
2023-02-13T10:03:37.479Z,12.80
2023-02-13T10:06:51.509Z,13.50
2023-02-13T10:09:50.778Z,13.37
2023-02-13T10:12:57.001Z,13.40
2023-02-13T10:15:53.555Z,17.60
2023-02-13T10:18:53.574Z,14.10
2023-02-13T10:21:51.454Z,15.57
2023-02-13T10:24:49.367Z,14.93
2023-02-13T10:27:56.746Z,15.50
2023-02-13T10:30:56.784Z,14.57
2023-02-13T10:33:52.193Z,13.37
2023-02-13T10:36:49.861Z,13.60
2023-02-13T10:39:45.040Z,13.97
2023-02-13T10:42:46.704Z,13.00
2023-02-13T10:46:02.905Z,16.07
2023-02-13T10:49:33.256Z,12.20
2023-02-13T10:52:41.207Z,15.10
2023-02-13T10:56:18.071Z,13.47
2023-02-13T10:59:45.695Z,13.40
2023-02-13T11:02:41.509Z,18.63
2023-02-13T11:05:37.363Z,13.53
2023-02-13T11:08:36.664Z,27.27
2023-02-13T11:11:37.733Z,15.20
2023-02-13T11:14:28.551Z,13.80
2023-02-13T11:17:23.139Z,15.10
2023-02-13T11:20:28.984Z,37.87
2023-02-13T12:24:08.016Z,16.80
2023-02-13T12:27:44.721Z,19.10
2023-02-13T12:32:00.911Z,16.67
